sensor_id;sensor_type;location;lat;lon;timestamp;P1;durP1;ratioP1;P2;durP2;ratioP2
15194;SDS011;7698;42.478;23.756;2023-06-22T00:02:00;11.73;;;10.93;;
15194;SDS011;7698;42.478;23.756;2023-06-22T00:04:29;12.93;;;11.85;;
15194;SDS011;7698;42.478;23.756;2023-06-22T00:06:56;11.70;;;10.80;;
15194;SDS011;7698;42.478;23.756;2023-06-22T00:09:23;11.82;;;10.93;;
15194;SDS011;7698;42.478;23.756;2023-06-22T00:11:49;12.20;;;11.30;;
15194;SDS011;7698;42.478;23.756;2023-06-22T00:14:16;11.85;;;10.95;;
15194;SDS011;7698;42.478;23.756;2023-06-22T00:16:43;11.48;;;10.68;;
15194;SDS011;7698;42.478;23.756;2023-06-22T00:19:13;11.05;;;10.23;;
15194;SDS011;7698;42.478;23.756;2023-06-22T00:21:42;10.65;;;9.85;;
15194;SDS011;7698;42.478;23.756;2023-06-22T00:24:12;9.68;;;8.93;;
15194;SDS011;7698;42.478;23.756;2023-06-22T00:26:38;10.32;;;9.43;;
15194;SDS011;7698;42.478;23.756;2023-06-22T00:29:05;10.00;;;9.30;;
15194;SDS011;7698;42.478;23.756;2023-06-22T00:31:32;13.65;;;12.60;;
15194;SDS011;7698;42.478;23.756;2023-06-22T00:33:59;11.57;;;10.73;;
15194;SDS011;7698;42.478;23.756;2023-06-22T00:36:25;11.25;;;10.40;;
15194;SDS011;7698;42.478;23.756;2023-06-22T00:38:56;10.85;;;10.05;;
15194;SDS011;7698;42.478;23.756;2023-06-22T00:41:22;10.10;;;9.40;;
15194;SDS011;7698;42.478;23.756;2023-06-22T00:43:49;9.90;;;9.20;;
15194;SDS011;7698;42.478;23.756;2023-06-22T00:46:16;10.77;;;9.98;;
15194;SDS011;7698;42.478;23.756;2023-06-22T00:48:43;10.88;;;10.07;;
15194;SDS011;7698;42.478;23.756;2023-06-22T00:51:10;9.35;;;8.65;;
15194;SDS011;7698;42.478;23.756;2023-06-22T00:53:37;9.88;;;9.18;;
15194;SDS011;7698;42.478;23.756;2023-06-22T00:56:07;9.40;;;8.70;;
15194;SDS011;7698;42.478;23.756;2023-06-22T00:58:37;8.95;;;8.35;;
15194;SDS011;7698;42.478;23.756;2023-06-22T01:01:06;10.68;;;9.88;;
15194;SDS011;7698;42.478;23.756;2023-06-22T01:03:33;11.30;;;10.40;;
15194;SDS011;7698;42.478;23.756;2023-06-22T01:06:02;11.20;;;10.40;;
15194;SDS011;7698;42.478;23.756;2023-06-22T01:08:36;11.00;;;10.10;;
15194;SDS011;7698;42.478;23.756;2023-06-22T01:11:10;11.85;;;10.95;;
15194;SDS011;7698;42.478;23.756;2023-06-22T01:13:46;12.38;;;11.32;;
15194;SDS011;7698;42.478;23.756;2023-06-22T01:16:19;10.77;;;9.93;;
15194;SDS011;7698;42.478;23.756;2023-06-22T01:18:50;12.10;;;11.23;;
15194;SDS011;7698;42.478;23.756;2023-06-22T01:21:22;12.57;;;11.68;;
15194;SDS011;7698;42.478;23.756;2023-06-22T01:23:53;12.60;;;11.65;;
15194;SDS011;7698;42.478;23.756;2023-06-22T01:26:38;11.45;;;10.55;;
15194;SDS011;7698;42.478;23.756;2023-06-22T01:29:10;11.73;;;10.85;;
15194;SDS011;7698;42.478;23.756;2023-06-22T01:31:39;13.13;;;12.23;;
15194;SDS011;7698;42.478;23.756;2023-06-22T01:34:08;12.88;;;11.93;;
15194;SDS011;7698;42.478;23.756;2023-06-22T01:36:36;13.05;;;12.10;;
15194;SDS011;7698;42.478;23.756;2023-06-22T01:39:05;11.43;;;10.32;;
15194;SDS011;7698;42.478;23.756;2023-06-22T01:41:34;10.93;;;10.13;;
15194;SDS011;7698;42.478;23.756;2023-06-22T01:44:03;11.43;;;10.52;;
15194;SDS011;7698;42.478;23.756;2023-06-22T01:46:33;12.02;;;11.13;;
15194;SDS011;7698;42.478;23.756;2023-06-22T01:49:01;10.45;;;9.65;;
15194;SDS011;7698;42.478;23.756;2023-06-22T01:51:28;12.70;;;11.70;;
15194;SDS011;7698;42.478;23.756;2023-06-22T01:53:56;11.77;;;10.88;;
15194;SDS011;7698;42.478;23.756;2023-06-22T01:56:23;11.15;;;10.23;;
15194;SDS011;7698;42.478;23.756;2023-06-22T01:58:50;10.77;;;9.93;;
15194;SDS011;7698;42.478;23.756;2023-06-22T02:01:24;9.82;;;9.02;;
15194;SDS011;7698;42.478;23.756;2023-06-22T02:04:08;10.18;;;9.38;;
15194;SDS011;7698;42.478;23.756;2023-06-22T02:06:41;9.98;;;9.23;;
15194;SDS011;7698;42.478;23.756;2023-06-22T02:09:12;10.48;;;9.68;;
15194;SDS011;7698;42.478;23.756;2023-06-22T02:11:42;10.18;;;9.48;;
15194;SDS011;7698;42.478;23.756;2023-06-22T02:14:12;11.05;;;10.25;;
15194;SDS011;7698;42.478;23.756;2023-06-22T02:16:40;10.60;;;9.60;;
15194;SDS011;7698;42.478;23.756;2023-06-22T02:19:08;9.40;;;8.70;;
15194;SDS011;7698;42.478;23.756;2023-06-22T02:21:35;8.88;;;8.18;;
15194;SDS011;7698;42.478;23.756;2023-06-22T02:24:03;10.65;;;9.85;;
15194;SDS011;7698;42.478;23.756;2023-06-22T02:26:30;9.57;;;8.82;;
15194;SDS011;7698;42.478;23.756;2023-06-22T02:28:59;9.30;;;8.60;;
15194;SDS011;7698;42.478;23.756;2023-06-22T02:31:26;9.52;;;8.82;;
15194;SDS011;7698;42.478;23.756;2023-06-22T02:33:55;9.57;;;8.88;;
15194;SDS011;7698;42.478;23.756;2023-06-22T02:36:24;7.65;;;7.07;;
15194;SDS011;7698;42.478;23.756;2023-06-22T02:38:52;10.95;;;10.15;;
15194;SDS011;7698;42.478;23.756;2023-06-22T02:41:19;14.00;;;12.90;;
15194;SDS011;7698;42.478;23.756;2023-06-22T02:43:46;10.85;;;10.05;;
15194;SDS011;7698;42.478;23.756;2023-06-22T02:46:13;12.32;;;11.20;;
15194;SDS011;7698;42.478;23.756;2023-06-22T02:48:40;12.10;;;11.10;;
15194;SDS011;7698;42.478;23.756;2023-06-22T02:51:07;11.90;;;11.00;;
15194;SDS011;7698;42.478;23.756;2023-06-22T02:53:36;11.23;;;10.43;;
15194;SDS011;7698;42.478;23.756;2023-06-22T02:56:03;11.88;;;10.95;;
15194;SDS011;7698;42.478;23.756;2023-06-22T02:58:31;10.60;;;9.80;;
15194;SDS011;7698;42.478;23.756;2023-06-22T03:01:03;10.57;;;9.77;;
15194;SDS011;7698;42.478;23.756;2023-06-22T03:03:30;13.80;;;12.68;;
15194;SDS011;7698;42.478;23.756;2023-06-22T03:05:57;12.65;;;11.75;;
15194;SDS011;7698;42.478;23.756;2023-06-22T03:08:26;12.50;;;11.50;;
15194;SDS011;7698;42.478;23.756;2023-06-22T03:10:55;10.30;;;9.48;;
15194;SDS011;7698;42.478;23.756;2023-06-22T03:13:22;11.98;;;11.07;;
15194;SDS011;7698;42.478;23.756;2023-06-22T03:15:49;10.75;;;9.95;;
15194;SDS011;7698;42.478;23.756;2023-06-22T03:18:16;15.13;;;13.95;;
15194;SDS011;7698;42.478;23.756;2023-06-22T03:20:42;15.60;;;14.18;;
15194;SDS011;7698;42.478;23.756;2023-06-22T03:23:09;18.77;;;17.27;;
15194;SDS011;7698;42.478;23.756;2023-06-22T03:25:36;17.15;;;15.85;;
15194;SDS011;7698;42.478;23.756;2023-06-22T03:28:04;16.08;;;14.85;;
15194;SDS011;7698;42.478;23.756;2023-06-22T03:30:31;14.77;;;13.68;;
15194;SDS011;7698;42.478;23.756;2023-06-22T03:32:58;13.13;;;12.13;;
15194;SDS011;7698;42.478;23.756;2023-06-22T03:35:25;13.98;;;12.98;;
15194;SDS011;7698;42.478;23.756;2023-06-22T03:37:52;13.27;;;12.27;;
15194;SDS011;7698;42.478;23.756;2023-06-22T03:40:19;13.10;;;12.10;;
15194;SDS011;7698;42.478;23.756;2023-06-22T03:42:46;13.55;;;12.55;;
15194;SDS011;7698;42.478;23.756;2023-06-22T03:45:14;12.10;;;11.10;;
15194;SDS011;7698;42.478;23.756;2023-06-22T03:47:41;12.20;;;11.30;;
15194;SDS011;7698;42.478;23.756;2023-06-22T03:50:08;13.45;;;12.45;;
15194;SDS011;7698;42.478;23.756;2023-06-22T03:52:35;9.90;;;9.20;;
15194;SDS011;7698;42.478;23.756;2023-06-22T03:55:02;9.52;;;8.82;;
15194;SDS011;7698;42.478;23.756;2023-06-22T03:57:29;9.15;;;8.45;;
15194;SDS011;7698;42.478;23.756;2023-06-22T03:59:56;9.55;;;8.80;;
15194;SDS011;7698;42.478;23.756;2023-06-22T04:02:25;8.80;;;8.18;;
15194;SDS011;7698;42.478;23.756;2023-06-22T04:04:52;9.35;;;8.48;;
15194;SDS011;7698;42.478;23.756;2023-06-22T04:07:19;9.77;;;9.07;;
15194;SDS011;7698;42.478;23.756;2023-06-22T04:09:46;8.80;;;8.13;;
15194;SDS011;7698;42.478;23.756;2023-06-22T04:12:13;11.13;;;10.25;;
15194;SDS011;7698;42.478;23.756;2023-06-22T04:14:40;12.65;;;11.52;;
15194;SDS011;7698;42.478;23.756;2023-06-22T04:17:07;11.68;;;10.80;;
15194;SDS011;7698;42.478;23.756;2023-06-22T04:19:36;12.65;;;11.55;;
15194;SDS011;7698;42.478;23.756;2023-06-22T04:22:03;10.65;;;9.95;;
15194;SDS011;7698;42.478;23.756;2023-06-22T04:24:32;11.25;;;10.35;;
15194;SDS011;7698;42.478;23.756;2023-06-22T04:26:59;12.32;;;11.23;;
15194;SDS011;7698;42.478;23.756;2023-06-22T04:29:28;10.95;;;10.15;;
15194;SDS011;7698;42.478;23.756;2023-06-22T04:31:55;11.00;;;10.13;;
15194;SDS011;7698;42.478;23.756;2023-06-22T04:34:23;11.55;;;10.65;;
15194;SDS011;7698;42.478;23.756;2023-06-22T04:36:53;11.05;;;10.25;;
15194;SDS011;7698;42.478;23.756;2023-06-22T04:39:21;11.05;;;10.25;;
15194;SDS011;7698;42.478;23.756;2023-06-22T04:41:49;10.00;;;9.20;;
15194;SDS011;7698;42.478;23.756;2023-06-22T04:44:16;10.70;;;9.95;;
15194;SDS011;7698;42.478;23.756;2023-06-22T04:46:49;7.90;;;7.40;;
15194;SDS011;7698;42.478;23.756;2023-06-22T04:49:19;10.38;;;9.43;;
15194;SDS011;7698;42.478;23.756;2023-06-22T04:51:47;9.27;;;8.60;;
15194;SDS011;7698;42.478;23.756;2023-06-22T04:54:15;9.10;;;8.40;;
15194;SDS011;7698;42.478;23.756;2023-06-22T04:56:42;10.85;;;9.93;;
15194;SDS011;7698;42.478;23.756;2023-06-22T04:59:11;10.80;;;9.80;;
15194;SDS011;7698;42.478;23.756;2023-06-22T05:01:39;10.98;;;9.93;;
15194;SDS011;7698;42.478;23.756;2023-06-22T05:04:06;10.43;;;9.48;;
15194;SDS011;7698;42.478;23.756;2023-06-22T05:06:33;10.43;;;9.63;;
15194;SDS011;7698;42.478;23.756;2023-06-22T05:09:00;12.13;;;11.23;;
15194;SDS011;7698;42.478;23.756;2023-06-22T05:11:29;11.45;;;10.65;;
15194;SDS011;7698;42.478;23.756;2023-06-22T05:13:56;12.23;;;11.25;;
15194;SDS011;7698;42.478;23.756;2023-06-22T05:16:23;11.82;;;10.73;;
15194;SDS011;7698;42.478;23.756;2023-06-22T05:18:51;12.00;;;10.90;;
15194;SDS011;7698;42.478;23.756;2023-06-22T05:21:21;10.50;;;9.70;;
15194;SDS011;7698;42.478;23.756;2023-06-22T05:23:49;11.32;;;10.52;;
15194;SDS011;7698;42.478;23.756;2023-06-22T05:26:16;9.80;;;9.02;;
15194;SDS011;7698;42.478;23.756;2023-06-22T05:28:45;8.63;;;8.02;;
15194;SDS011;7698;42.478;23.756;2023-06-22T05:31:13;9.05;;;8.25;;
15194;SDS011;7698;42.478;23.756;2023-06-22T05:33:40;9.43;;;8.82;;
15194;SDS011;7698;42.478;23.756;2023-06-22T05:36:08;11.18;;;10.20;;
15194;SDS011;7698;42.478;23.756;2023-06-22T05:38:35;11.32;;;10.43;;
15194;SDS011;7698;42.478;23.756;2023-06-22T05:41:02;11.27;;;10.27;;
15194;SDS011;7698;42.478;23.756;2023-06-22T05:43:29;10.63;;;9.70;;
15194;SDS011;7698;42.478;23.756;2023-06-22T05:45:58;9.60;;;8.85;;
15194;SDS011;7698;42.478;23.756;2023-06-22T05:48:26;9.90;;;9.10;;
15194;SDS011;7698;42.478;23.756;2023-06-22T05:50:53;9.50;;;8.80;;
15194;SDS011;7698;42.478;23.756;2023-06-22T05:53:20;9.98;;;9.07;;
15194;SDS011;7698;42.478;23.756;2023-06-22T05:55:47;8.90;;;8.30;;
15194;SDS011;7698;42.478;23.756;2023-06-22T05:58:14;9.45;;;8.65;;
15194;SDS011;7698;42.478;23.756;2023-06-22T06:00:41;8.70;;;7.90;;
15194;SDS011;7698;42.478;23.756;2023-06-22T06:03:10;10.30;;;9.35;;
15194;SDS011;7698;42.478;23.756;2023-06-22T06:05:37;10.02;;;9.23;;
15194;SDS011;7698;42.478;23.756;2023-06-22T06:08:04;7.65;;;7.15;;
15194;SDS011;7698;42.478;23.756;2023-06-22T06:10:32;9.20;;;8.50;;
15194;SDS011;7698;42.478;23.756;2023-06-22T06:13:00;9.02;;;8.43;;
15194;SDS011;7698;42.478;23.756;2023-06-22T06:15:29;8.35;;;7.75;;
15194;SDS011;7698;42.478;23.756;2023-06-22T06:17:57;8.90;;;8.15;;
15194;SDS011;7698;42.478;23.756;2023-06-22T06:20:26;8.45;;;7.85;;
15194;SDS011;7698;42.478;23.756;2023-06-22T06:22:54;9.32;;;8.65;;
15194;SDS011;7698;42.478;23.756;2023-06-22T06:25:21;9.70;;;8.43;;
15194;SDS011;7698;42.478;23.756;2023-06-22T06:27:50;9.38;;;8.68;;
15194;SDS011;7698;42.478;23.756;2023-06-22T06:30:19;8.35;;;7.65;;
15194;SDS011;7698;42.478;23.756;2023-06-22T06:32:46;9.30;;;8.50;;
15194;SDS011;7698;42.478;23.756;2023-06-22T06:35:14;8.00;;;7.38;;
15194;SDS011;7698;42.478;23.756;2023-06-22T06:37:43;8.55;;;7.90;;
15194;SDS011;7698;42.478;23.756;2023-06-22T06:40:12;8.13;;;7.53;;
15194;SDS011;7698;42.478;23.756;2023-06-22T06:42:40;8.98;;;8.15;;
15194;SDS011;7698;42.478;23.756;2023-06-22T06:45:10;8.32;;;7.72;;
15194;SDS011;7698;42.478;23.756;2023-06-22T06:47:38;7.75;;;7.15;;
15194;SDS011;7698;42.478;23.756;2023-06-22T06:50:05;7.13;;;6.53;;
15194;SDS011;7698;42.478;23.756;2023-06-22T06:52:33;8.50;;;7.90;;
15194;SDS011;7698;42.478;23.756;2023-06-22T06:55:01;8.93;;;8.13;;
15194;SDS011;7698;42.478;23.756;2023-06-22T06:57:29;8.02;;;7.43;;
15194;SDS011;7698;42.478;23.756;2023-06-22T06:59:57;8.43;;;7.65;;
15194;SDS011;7698;42.478;23.756;2023-06-22T07:02:24;7.97;;;7.30;;
15194;SDS011;7698;42.478;23.756;2023-06-22T07:04:53;7.03;;;6.63;;
15194;SDS011;7698;42.478;23.756;2023-06-22T07:07:20;7.68;;;7.15;;
15194;SDS011;7698;42.478;23.756;2023-06-22T07:09:47;7.35;;;6.75;;
15194;SDS011;7698;42.478;23.756;2023-06-22T07:12:15;8.65;;;7.80;;
15194;SDS011;7698;42.478;23.756;2023-06-22T07:14:42;7.20;;;6.70;;
15194;SDS011;7698;42.478;23.756;2023-06-22T07:17:10;7.25;;;6.70;;
15194;SDS011;7698;42.478;23.756;2023-06-22T07:19:36;7.93;;;7.32;;
15194;SDS011;7698;42.478;23.756;2023-06-22T07:22:04;7.55;;;6.95;;
15194;SDS011;7698;42.478;23.756;2023-06-22T07:24:31;7.15;;;6.60;;
15194;SDS011;7698;42.478;23.756;2023-06-22T07:26:58;8.05;;;7.35;;
15194;SDS011;7698;42.478;23.756;2023-06-22T07:29:27;8.68;;;7.97;;
15194;SDS011;7698;42.478;23.756;2023-06-22T07:31:54;7.13;;;6.43;;
15194;SDS011;7698;42.478;23.756;2023-06-22T07:34:21;6.65;;;6.25;;
15194;SDS011;7698;42.478;23.756;2023-06-22T07:36:48;6.68;;;6.20;;
15194;SDS011;7698;42.478;23.756;2023-06-22T07:39:15;6.03;;;5.50;;
15194;SDS011;7698;42.478;23.756;2023-06-22T07:41:42;6.03;;;5.63;;
15194;SDS011;7698;42.478;23.756;2023-06-22T07:44:09;13.68;;;10.10;;
15194;SDS011;7698;42.478;23.756;2023-06-22T07:46:38;7.85;;;7.20;;
15194;SDS011;7698;42.478;23.756;2023-06-22T07:49:05;7.55;;;6.85;;
15194;SDS011;7698;42.478;23.756;2023-06-22T07:51:33;6.55;;;6.07;;
15194;SDS011;7698;42.478;23.756;2023-06-22T07:54:00;5.88;;;5.43;;
15194;SDS011;7698;42.478;23.756;2023-06-22T07:56:27;6.13;;;5.63;;
15194;SDS011;7698;42.478;23.756;2023-06-22T07:58:54;6.45;;;5.95;;
15194;SDS011;7698;42.478;23.756;2023-06-22T08:01:23;6.38;;;5.78;;
15194;SDS011;7698;42.478;23.756;2023-06-22T08:03:52;5.80;;;5.35;;
15194;SDS011;7698;42.478;23.756;2023-06-22T08:06:19;6.32;;;5.82;;
15194;SDS011;7698;42.478;23.756;2023-06-22T08:08:46;6.45;;;5.85;;
15194;SDS011;7698;42.478;23.756;2023-06-22T08:11:14;6.38;;;5.80;;
15194;SDS011;7698;42.478;23.756;2023-06-22T08:13:41;5.55;;;5.15;;
15194;SDS011;7698;42.478;23.756;2023-06-22T08:16:08;4.95;;;4.65;;
15194;SDS011;7698;42.478;23.756;2023-06-22T08:18:35;5.22;;;4.88;;
15194;SDS011;7698;42.478;23.756;2023-06-22T08:21:03;4.55;;;4.25;;
15194;SDS011;7698;42.478;23.756;2023-06-22T08:23:30;4.60;;;4.30;;
15194;SDS011;7698;42.478;23.756;2023-06-22T08:25:57;4.90;;;4.50;;
15194;SDS011;7698;42.478;23.756;2023-06-22T08:28:25;4.63;;;4.22;;
15194;SDS011;7698;42.478;23.756;2023-06-22T08:30:52;4.40;;;4.10;;
15194;SDS011;7698;42.478;23.756;2023-06-22T08:33:20;4.63;;;4.32;;
15194;SDS011;7698;42.478;23.756;2023-06-22T08:35:48;4.18;;;3.88;;
15194;SDS011;7698;42.478;23.756;2023-06-22T08:38:17;5.00;;;4.70;;
15194;SDS011;7698;42.478;23.756;2023-06-22T08:40:44;6.82;;;4.90;;
15194;SDS011;7698;42.478;23.756;2023-06-22T08:43:11;4.55;;;4.25;;
15194;SDS011;7698;42.478;23.756;2023-06-22T08:45:38;4.97;;;4.57;;
15194;SDS011;7698;42.478;23.756;2023-06-22T08:48:05;4.75;;;4.35;;
15194;SDS011;7698;42.478;23.756;2023-06-22T08:50:32;4.90;;;4.53;;
15194;SDS011;7698;42.478;23.756;2023-06-22T08:52:59;4.75;;;4.35;;
15194;SDS011;7698;42.478;23.756;2023-06-22T08:55:27;5.28;;;4.97;;
15194;SDS011;7698;42.478;23.756;2023-06-22T08:57:54;5.20;;;4.80;;
15194;SDS011;7698;42.478;23.756;2023-06-22T09:00:21;4.68;;;4.38;;
15194;SDS011;7698;42.478;23.756;2023-06-22T09:02:48;5.35;;;5.05;;
15194;SDS011;7698;42.478;23.756;2023-06-22T09:05:15;5.18;;;4.80;;
15194;SDS011;7698;42.478;23.756;2023-06-22T09:07:42;4.95;;;4.50;;
15194;SDS011;7698;42.478;23.756;2023-06-22T09:10:09;5.15;;;4.85;;
15194;SDS011;7698;42.478;23.756;2023-06-22T09:12:39;5.45;;;5.05;;
15194;SDS011;7698;42.478;23.756;2023-06-22T09:15:06;5.47;;;4.82;;
15194;SDS011;7698;42.478;23.756;2023-06-22T09:17:34;4.93;;;4.53;;
15194;SDS011;7698;42.478;23.756;2023-06-22T09:20:02;4.57;;;4.28;;
15194;SDS011;7698;42.478;23.756;2023-06-22T09:22:31;4.88;;;4.50;;
15194;SDS011;7698;42.478;23.756;2023-06-22T09:24:58;4.95;;;4.65;;
15194;SDS011;7698;42.478;23.756;2023-06-22T09:27:25;4.13;;;3.92;;
15194;SDS011;7698;42.478;23.756;2023-06-22T09:29:54;4.85;;;4.57;;
15194;SDS011;7698;42.478;23.756;2023-06-22T09:32:21;4.88;;;4.63;;
15194;SDS011;7698;42.478;23.756;2023-06-22T09:34:48;4.85;;;4.50;;
15194;SDS011;7698;42.478;23.756;2023-06-22T09:37:15;4.88;;;4.57;;
15194;SDS011;7698;42.478;23.756;2023-06-22T09:39:42;5.20;;;4.90;;
15194;SDS011;7698;42.478;23.756;2023-06-22T09:42:08;4.78;;;4.47;;
15194;SDS011;7698;42.478;23.756;2023-06-22T09:44:36;4.88;;;4.57;;
15194;SDS011;7698;42.478;23.756;2023-06-22T09:47:06;5.32;;;4.93;;
15194;SDS011;7698;42.478;23.756;2023-06-22T09:49:33;4.75;;;4.45;;
15194;SDS011;7698;42.478;23.756;2023-06-22T09:52:00;5.60;;;5.20;;
15194;SDS011;7698;42.478;23.756;2023-06-22T09:54:28;5.35;;;4.78;;
15194;SDS011;7698;42.478;23.756;2023-06-22T09:56:57;5.32;;;4.93;;
15194;SDS011;7698;42.478;23.756;2023-06-22T09:59:24;5.07;;;4.78;;
15194;SDS011;7698;42.478;23.756;2023-06-22T10:01:51;5.32;;;4.95;;
15194;SDS011;7698;42.478;23.756;2023-06-22T10:04:20;4.95;;;4.65;;
15194;SDS011;7698;42.478;23.756;2023-06-22T10:06:47;5.38;;;5.07;;
15194;SDS011;7698;42.478;23.756;2023-06-22T10:09:14;4.88;;;4.47;;
15194;SDS011;7698;42.478;23.756;2023-06-22T10:11:41;4.85;;;4.55;;
15194;SDS011;7698;42.478;23.756;2023-06-22T10:14:08;4.80;;;4.40;;
15194;SDS011;7698;42.478;23.756;2023-06-22T10:16:36;4.57;;;4.25;;
15194;SDS011;7698;42.478;23.756;2023-06-22T10:19:03;4.72;;;4.43;;
15194;SDS011;7698;42.478;23.756;2023-06-22T10:21:31;4.80;;;4.50;;
15194;SDS011;7698;42.478;23.756;2023-06-22T10:23:59;4.80;;;4.50;;
15194;SDS011;7698;42.478;23.756;2023-06-22T10:26:31;5.05;;;4.75;;
15194;SDS011;7698;42.478;23.756;2023-06-22T10:28:58;4.97;;;4.68;;
15194;SDS011;7698;42.478;23.756;2023-06-22T10:31:25;5.28;;;4.90;;
15194;SDS011;7698;42.478;23.756;2023-06-22T10:33:53;4.65;;;4.35;;
15194;SDS011;7698;42.478;23.756;2023-06-22T10:36:20;5.40;;;5.00;;
15194;SDS011;7698;42.478;23.756;2023-06-22T10:38:49;5.32;;;4.93;;
15194;SDS011;7698;42.478;23.756;2023-06-22T10:41:17;5.03;;;4.63;;
15194;SDS011;7698;42.478;23.756;2023-06-22T10:43:44;5.10;;;4.80;;
15194;SDS011;7698;42.478;23.756;2023-06-22T10:46:12;4.53;;;4.20;;
15194;SDS011;7698;42.478;23.756;2023-06-22T10:48:38;5.40;;;5.10;;
15194;SDS011;7698;42.478;23.756;2023-06-22T10:51:05;4.50;;;4.20;;
15194;SDS011;7698;42.478;23.756;2023-06-22T10:53:32;5.30;;;5.00;;
15194;SDS011;7698;42.478;23.756;2023-06-22T10:56:01;5.07;;;4.68;;
15194;SDS011;7698;42.478;23.756;2023-06-22T10:58:28;5.10;;;4.80;;
15194;SDS011;7698;42.478;23.756;2023-06-22T11:00:55;5.15;;;4.85;;
15194;SDS011;7698;42.478;23.756;2023-06-22T11:03:22;6.25;;;5.65;;
15194;SDS011;7698;42.478;23.756;2023-06-22T11:05:49;5.22;;;4.80;;
15194;SDS011;7698;42.478;23.756;2023-06-22T11:08:16;4.95;;;4.63;;
15194;SDS011;7698;42.478;23.756;2023-06-22T11:10:43;4.63;;;4.32;;
15194;SDS011;7698;42.478;23.756;2023-06-22T11:13:11;5.40;;;5.00;;
15194;SDS011;7698;42.478;23.756;2023-06-22T11:15:38;4.97;;;4.68;;
15194;SDS011;7698;42.478;23.756;2023-06-22T11:18:05;4.95;;;4.65;;
15194;SDS011;7698;42.478;23.756;2023-06-22T11:20:33;5.55;;;5.05;;
15194;SDS011;7698;42.478;23.756;2023-06-22T11:23:03;5.43;;;5.03;;
15194;SDS011;7698;42.478;23.756;2023-06-22T11:25:32;5.78;;;5.47;;
15194;SDS011;7698;42.478;23.756;2023-06-22T11:28:00;5.65;;;5.15;;
15194;SDS011;7698;42.478;23.756;2023-06-22T11:30:29;5.20;;;4.70;;
15194;SDS011;7698;42.478;23.756;2023-06-22T11:32:56;4.68;;;4.28;;
15194;SDS011;7698;42.478;23.756;2023-06-22T11:35:24;4.72;;;4.43;;
15194;SDS011;7698;42.478;23.756;2023-06-22T11:37:51;5.38;;;5.07;;
15194;SDS011;7698;42.478;23.756;2023-06-22T11:40:18;5.10;;;4.80;;
15194;SDS011;7698;42.478;23.756;2023-06-22T11:42:45;5.07;;;4.78;;
15194;SDS011;7698;42.478;23.756;2023-06-22T11:45:12;4.88;;;4.57;;
15194;SDS011;7698;42.478;23.756;2023-06-22T11:47:40;5.03;;;4.63;;
15194;SDS011;7698;42.478;23.756;2023-06-22T11:50:08;4.80;;;4.50;;
15194;SDS011;7698;42.478;23.756;2023-06-22T11:52:35;4.88;;;4.57;;
15194;SDS011;7698;42.478;23.756;2023-06-22T11:55:03;4.45;;;4.15;;
15194;SDS011;7698;42.478;23.756;2023-06-22T11:57:32;4.72;;;4.40;;
15194;SDS011;7698;42.478;23.756;2023-06-22T12:00:00;4.90;;;4.60;;
15194;SDS011;7698;42.478;23.756;2023-06-22T12:02:31;4.53;;;4.22;;
15194;SDS011;7698;42.478;23.756;2023-06-22T12:05:00;5.63;;;5.22;;
15194;SDS011;7698;42.478;23.756;2023-06-22T12:07:30;4.65;;;4.35;;
15194;SDS011;7698;42.478;23.756;2023-06-22T12:09:57;4.57;;;4.28;;
15194;SDS011;7698;42.478;23.756;2023-06-22T12:12:24;4.75;;;4.45;;
15194;SDS011;7698;42.478;23.756;2023-06-22T12:14:51;4.45;;;4.18;;
15194;SDS011;7698;42.478;23.756;2023-06-22T12:17:18;4.00;;;3.80;;
15194;SDS011;7698;42.478;23.756;2023-06-22T12:23:08;4.57;;;4.28;;
15194;SDS011;7698;42.478;23.756;2023-06-22T12:25:35;4.93;;;4.57;;
15194;SDS011;7698;42.478;23.756;2023-06-22T12:28:02;5.13;;;4.82;;
15194;SDS011;7698;42.478;23.756;2023-06-22T12:30:29;5.05;;;4.75;;
15194;SDS011;7698;42.478;23.756;2023-06-22T12:32:56;5.00;;;4.60;;
15194;SDS011;7698;42.478;23.756;2023-06-22T12:35:24;5.00;;;4.70;;
15194;SDS011;7698;42.478;23.756;2023-06-22T12:37:51;5.18;;;4.88;;
15194;SDS011;7698;42.478;23.756;2023-06-22T12:40:19;5.30;;;4.93;;
15194;SDS011;7698;42.478;23.756;2023-06-22T12:42:46;5.13;;;4.80;;
15194;SDS011;7698;42.478;23.756;2023-06-22T12:45:13;5.43;;;5.03;;
15194;SDS011;7698;42.478;23.756;2023-06-22T12:47:40;5.13;;;4.82;;
15194;SDS011;7698;42.478;23.756;2023-06-22T12:50:08;4.95;;;4.55;;
15194;SDS011;7698;42.478;23.756;2023-06-22T12:52:36;5.13;;;4.72;;
15194;SDS011;7698;42.478;23.756;2023-06-22T12:55:04;5.60;;;5.25;;
15194;SDS011;7698;42.478;23.756;2023-06-22T12:57:33;4.68;;;4.38;;
15194;SDS011;7698;42.478;23.756;2023-06-22T13:00:00;4.75;;;4.45;;
15194;SDS011;7698;42.478;23.756;2023-06-22T13:02:29;5.05;;;4.75;;
15194;SDS011;7698;42.478;23.756;2023-06-22T13:04:56;6.30;;;5.90;;
15194;SDS011;7698;42.478;23.756;2023-06-22T13:07:23;4.90;;;4.60;;
15194;SDS011;7698;42.478;23.756;2023-06-22T13:09:50;5.43;;;5.07;;
15194;SDS011;7698;42.478;23.756;2023-06-22T13:12:17;5.75;;;5.35;;
15194;SDS011;7698;42.478;23.756;2023-06-22T13:14:46;5.75;;;5.30;;
15194;SDS011;7698;42.478;23.756;2023-06-22T13:17:13;5.32;;;4.93;;
15194;SDS011;7698;42.478;23.756;2023-06-22T13:19:41;5.15;;;4.75;;
15194;SDS011;7698;42.478;23.756;2023-06-22T13:22:09;5.82;;;5.43;;
15194;SDS011;7698;42.478;23.756;2023-06-22T13:24:53;6.30;;;5.90;;
15194;SDS011;7698;42.478;23.756;2023-06-22T13:27:20;6.15;;;5.60;;
15194;SDS011;7698;42.478;23.756;2023-06-22T13:29:49;5.72;;;5.38;;
15194;SDS011;7698;42.478;23.756;2023-06-22T13:32:16;5.95;;;5.55;;
15194;SDS011;7698;42.478;23.756;2023-06-22T13:34:43;6.10;;;5.70;;
15194;SDS011;7698;42.478;23.756;2023-06-22T13:37:10;5.35;;;4.95;;
15194;SDS011;7698;42.478;23.756;2023-06-22T13:39:36;6.65;;;6.15;;
15194;SDS011;7698;42.478;23.756;2023-06-22T13:42:04;5.80;;;5.40;;
15194;SDS011;7698;42.478;23.756;2023-06-22T13:44:31;5.72;;;5.32;;
15194;SDS011;7698;42.478;23.756;2023-06-22T13:46:59;6.68;;;6.18;;
15194;SDS011;7698;42.478;23.756;2023-06-22T13:49:27;5.60;;;5.20;;
15194;SDS011;7698;42.478;23.756;2023-06-22T13:51:54;5.82;;;5.43;;
15194;SDS011;7698;42.478;23.756;2023-06-22T13:54:21;6.47;;;5.97;;
15194;SDS011;7698;42.478;23.756;2023-06-22T13:56:48;6.10;;;5.60;;
15194;SDS011;7698;42.478;23.756;2023-06-22T13:59:16;6.38;;;5.88;;
15194;SDS011;7698;42.478;23.756;2023-06-22T14:01:42;6.03;;;5.63;;
15194;SDS011;7698;42.478;23.756;2023-06-22T14:04:11;5.40;;;5.10;;
15194;SDS011;7698;42.478;23.756;2023-06-22T14:06:38;5.65;;;5.25;;
15194;SDS011;7698;42.478;23.756;2023-06-22T14:09:05;6.03;;;5.53;;
15194;SDS011;7698;42.478;23.756;2023-06-22T14:11:32;5.93;;;5.43;;
15194;SDS011;7698;42.478;23.756;2023-06-22T14:13:59;6.45;;;6.00;;
15194;SDS011;7698;42.478;23.756;2023-06-22T14:16:27;7.55;;;6.85;;
15194;SDS011;7698;42.478;23.756;2023-06-22T14:18:54;6.88;;;6.38;;
15194;SDS011;7698;42.478;23.756;2023-06-22T14:21:22;5.45;;;5.05;;
15194;SDS011;7698;42.478;23.756;2023-06-22T14:23:49;6.10;;;5.60;;
15194;SDS011;7698;42.478;23.756;2023-06-22T14:26:16;5.80;;;5.28;;
15194;SDS011;7698;42.478;23.756;2023-06-22T14:28:44;7.15;;;5.28;;
15194;SDS011;7698;42.478;23.756;2023-06-22T14:31:13;5.40;;;5.05;;
15194;SDS011;7698;42.478;23.756;2023-06-22T14:33:41;6.40;;;5.82;;
15194;SDS011;7698;42.478;23.756;2023-06-22T14:36:10;6.32;;;5.63;;
15194;SDS011;7698;42.478;23.756;2023-06-22T14:38:38;5.45;;;4.90;;
15194;SDS011;7698;42.478;23.756;2023-06-22T14:41:05;5.85;;;5.40;;
15194;SDS011;7698;42.478;23.756;2023-06-22T14:43:33;6.55;;;5.90;;
15194;SDS011;7698;42.478;23.756;2023-06-22T14:46:00;16.33;;;8.63;;
15194;SDS011;7698;42.478;23.756;2023-06-22T14:48:27;6.18;;;5.50;;